Time;durP1;ratioP1;P1;durP2;ratioP2;P2;SDS_P1;SDS_P2;PMS_P1;PMS_P2;Temp;Humidity;BMP_temperature;BMP_pressure;BME280_temperature;BME280_humidity;BME280_pressure;Samples;Min_cycle;Max_cycle;Signal;HPM_P1;HPM_P2
2022/12/28 00:02:02;;;;;;;2.17;0.00;;;;;;;9.26;100.00;100334.09;5022166;28;20112;-56
2022/12/28 00:04:28;;;;;;;0.35;0.20;;;;;;;9.22;100.00;100338.16;5021575;28;20490;-56
2022/12/28 00:06:53;;;;;;;0.10;0.00;;;;;;;9.29;100.00;100339.06;5024897;28;20033;-59
2022/12/28 00:09:18;;;;;;;0.20;0.00;;;;;;;9.32;100.00;100338.66;5018893;28;20125;-58
2022/12/28 00:11:44;;;;;;;0.00;0.00;;;;;;;9.30;100.00;100332.75;5024864;28;20498;-54
2022/12/28 00:14:09;;;;;;;1.25;0.00;;;;;;;9.38;100.00;100345.84;5021566;28;20411;-59
2022/12/28 00:16:37;;;;;;;0.00;0.00;;;;;;;9.41;100.00;100335.91;5021293;28;20032;-59
2022/12/28 00:19:05;;;;;;;0.85;0.55;;;;;;;9.49;100.00;100343.72;5021651;28;20041;-59
2022/12/28 00:21:33;;;;;;;0.00;0.00;;;;;;;9.43;100.00;100341.84;5023221;28;20030;-59
2022/12/28 00:23:59;;;;;;;0.20;0.20;;;;;;;9.36;100.00;100331.16;5024869;28;20395;-58
2022/12/28 00:26:27;;;;;;;1.17;0.52;;;;;;;9.40;100.00;100340.38;5028620;28;20037;-59
2022/12/28 00:28:53;;;;;;;1.50;0.95;;;;;;;9.50;100.00;100334.78;5024036;28;20045;-57
2022/12/28 00:31:18;;;;;;;1.75;1.60;;;;;;;9.58;100.00;100334.69;5030116;28;20040;-60
2022/12/28 00:33:44;;;;;;;3.05;2.17;;;;;;;9.53;100.00;100327.28;5023877;28;20100;-57
2022/12/28 00:36:13;;;;;;;2.47;1.20;;;;;;;9.53;100.00;100323.84;5027461;28;20509;-60
2022/12/28 00:38:39;;;;;;;1.13;0.57;;;;;;;9.53;100.00;100323.84;5022992;28;20044;-60
2022/12/28 00:41:05;;;;;;;0.30;0.20;;;;;;;9.56;100.00;100326.09;5020303;28;20692;-59
2022/12/28 00:43:31;;;;;;;0.20;0.20;;;;;;;9.52;100.00;100317.69;5020082;28;20553;-59
2022/12/28 00:45:56;;;;;;;0.10;0.10;;;;;;;9.47;100.00;100308.69;5024179;28;20041;-60
2022/12/28 00:48:22;;;;;;;0.00;0.00;;;;;;;9.49;100.00;100301.38;5021512;28;20321;-60
2022/12/28 00:50:48;;;;;;;0.88;0.00;;;;;;;9.43;100.00;100312.72;5014185;28;20029;-57
2022/12/28 00:53:14;;;;;;;0.00;0.00;;;;;;;9.54;100.00;100314.88;5023826;28;20037;-60
2022/12/28 00:55:40;;;;;;;0.00;0.00;;;;;;;9.61;100.00;100315.78;5022209;28;20027;-60
2022/12/28 00:58:05;;;;;;;0.00;0.00;;;;;;;9.56;100.00;100302.28;5019040;28;20029;-59
2022/12/28 01:00:32;;;;;;;0.55;0.00;;;;;;;9.55;100.00;100306.75;5018903;28;20055;-58
2022/12/28 01:02:58;;;;;;;0.17;0.17;;;;;;;9.58;100.00;100295.78;5015997;28;20390;-57
2022/12/28 01:05:24;;;;;;;0.00;0.00;;;;;;;9.52;100.00;100295.72;5026067;28;20159;-60
2022/12/28 01:07:49;;;;;;;3.03;0.00;;;;;;;9.51;100.00;100308.13;5022114;28;20037;-58
2022/12/28 01:10:15;;;;;;;0.00;0.00;;;;;;;9.61;100.00;100297.25;5024772;28;20081;-60
2022/12/28 01:12:41;;;;;;;0.63;0.00;;;;;;;9.63;100.00;100300.53;5028656;28;20028;-59
2022/12/28 01:15:08;;;;;;;0.32;0.00;;;;;;;9.63;100.00;100297.03;5021454;28;20026;-60
2022/12/28 01:17:34;;;;;;;1.88;0.73;;;;;;;9.66;100.00;100302.78;5026192;28;20483;-60
2022/12/28 01:19:59;;;;;;;0.00;0.00;;;;;;;9.70;100.00;100305.84;5024346;28;20060;-57
2022/12/28 01:22:25;;;;;;;0.00;0.00;;;;;;;9.78;100.00;100297.78;5020702;28;20030;-60
2022/12/28 01:24:50;;;;;;;0.40;0.00;;;;;;;9.77;100.00;100310.22;5021588;28;20036;-59
2022/12/28 01:27:16;;;;;;;0.00;0.00;;;;;;;9.69;100.00;100314.81;5022699;28;20034;-60
2022/12/28 01:29:41;;;;;;;0.55;0.00;;;;;;;9.63;100.00;100307.63;5025102;28;20017;-59
2022/12/28 01:32:06;;;;;;;0.20;0.00;;;;;;;9.74;100.00;100313.25;5023112;28;20163;-60
2022/12/28 01:34:32;;;;;;;0.00;0.00;;;;;;;9.70;100.00;100313.81;5028275;28;20033;-56
2022/12/28 01:36:57;;;;;;;1.30;0.00;;;;;;;9.59;100.00;100318.59;5027709;28;20022;-59
2022/12/28 01:39:22;;;;;;;0.10;0.00;;;;;;;9.70;100.00;100308.50;5021086;28;20030;-59
2022/12/28 01:41:48;;;;;;;1.60;0.30;;;;;;;9.68;100.00;100314.00;5017874;28;20036;-58
2022/12/28 01:44:13;;;;;;;0.98;0.10;;;;;;;9.63;100.00;100312.91;5017730;28;20121;-60
2022/12/28 01:46:40;;;;;;;1.65;0.00;;;;;;;9.63;100.00;100300.53;5019738;28;20038;-57
2022/12/28 01:49:12;;;;;;;1.67;0.00;;;;;;;9.57;100.00;100298.63;5017523;28;20053;-56
2022/12/28 01:51:49;;;;;;;0.00;0.00;;;;;;;9.51;100.00;100288.78;5024416;28;20488;-59
2022/12/28 01:54:15;;;;;;;0.65;0.00;;;;;;;9.46;100.00;100291.19;5029179;28;20394;-60
2022/12/28 01:56:42;;;;;;;0.00;0.00;;;;;;;9.36;100.00;100281.72;5032126;28;20029;-58
2022/12/28 01:59:08;;;;;;;0.60;0.00;;;;;;;9.29;100.00;100280.84;5031935;28;20026;-59
2022/12/28 02:01:34;;;;;;;0.00;0.00;;;;;;;9.30;100.00;100273.72;5036442;28;20099;-59
2022/12/28 02:03:59;;;;;;;0.00;0.00;;;;;;;9.30;100.00;100284.31;5039627;28;20090;-61
2022/12/28 02:06:25;;;;;;;0.00;0.00;;;;;;;9.26;100.00;100275.91;5024523;28;20033;-58
2022/12/28 02:09:09;;;;;;;0.00;0.00;;;;;;;9.37;100.00;100269.28;5034558;28;20028;-60
2022/12/28 02:11:35;;;;;;;1.60;0.03;;;;;;;9.40;100.00;100266.28;5037703;28;20031;-57
2022/12/28 02:14:01;;;;;;;0.00;0.00;;;;;;;9.31;100.00;100247.06;5032921;28;20573;-58
2022/12/28 02:16:27;;;;;;;0.25;0.00;;;;;;;9.25;100.00;100245.19;5039032;28;20036;-58
2022/12/28 02:18:53;;;;;;;0.00;0.00;;;;;;;9.18;100.00;100246.94;5037843;28;20367;-57
2022/12/28 02:21:22;;;;;;;0.32;0.00;;;;;;;9.14;100.00;100243.03;5028269;28;20049;-54
2022/12/28 02:24:09;;;;;;;0.00;0.00;;;;;;;9.31;100.00;100240.94;5017794;28;20025;-55
2022/12/28 02:26:49;;;;;;;1.55;0.00;;;;;;;9.27;100.00;100237.06;5028220;28;20175;-58
2022/12/28 02:29:42;;;;;;;0.00;0.00;;;;;;;9.19;100.00;100232.72;5036035;28;20026;-58
2022/12/28 02:32:16;;;;;;;0.20;0.00;;;;;;;9.16;100.00;100233.06;5025253;28;20033;-59
2022/12/28 02:35:13;;;;;;;0.10;0.00;;;;;;;9.10;100.00;100216.13;5033832;28;20047;-58
2022/12/28 02:37:38;;;;;;;0.13;0.00;;;;;;;9.02;100.00;100212.78;5033312;28;20043;-57
2022/12/28 02:40:10;;;;;;;0.00;0.00;;;;;;;8.98;100.00;100224.72;5023838;28;20029;-58
2022/12/28 02:42:37;;;;;;;0.15;0.03;;;;;;;8.95;100.00;100216.16;5026080;28;20394;-56
2022/12/28 02:50:52;;;;;;;2.20;0.52;;;;;;;8.81;100.00;100193.25;5028967;28;20065;-55
2022/12/28 02:53:33;;;;;;;0.00;0.00;;;;;;;8.77;100.00;100191.16;5025577;28;20383;-56
2022/12/28 02:56:45;;;;;;;2.47;0.43;;;;;;;8.81;100.00;100192.44;5030015;28;20036;-55
2022/12/28 02:59:40;;;;;;;1.05;0.00;;;;;;;8.81;100.00;100181.84;5059076;28;20048;-58
2022/12/28 03:02:24;;;;;;;0.98;0.00;;;;;;;8.57;100.00;100178.53;5054330;28;20074;-56
2022/12/28 03:05:05;;;;;;;0.10;0.10;;;;;;;8.50;100.00;100186.38;5037754;28;20570;-59
2022/12/28 03:10:39;;;;;;;0.70;0.00;;;;;;;8.42;100.00;100177.72;5033173;28;20050;-59
2022/12/28 03:13:41;;;;;;;0.28;0.00;;;;;;;8.50;100.00;100170.50;5029834;28;20049;-59
2022/12/28 03:16:06;;;;;;;0.80;0.00;;;;;;;8.44;100.00;100171.25;5031169;28;20443;-59
2022/12/28 03:32:27;;;;;;;0.00;0.00;;;;;;;8.51;100.00;100156.28;5035279;28;20090;-55
2022/12/28 03:34:52;;;;;;;0.50;0.00;;;;;;;8.50;100.00;100148.56;5036117;28;20029;-59
2022/12/28 03:37:33;;;;;;;1.65;0.00;;;;;;;8.51;100.00;100153.63;5034168;28;20117;-56
2022/12/28 03:40:14;;;;;;;0.60;0.00;;;;;;;8.50;100.00;100154.66;5021747;28;20363;-54
2022/12/28 03:45:49;;;;;;;0.35;0.00;;;;;;;8.42;100.00;100151.31;5034178;28;20111;-57
2022/12/28 03:48:16;;;;;;;1.42;0.00;;;;;;;8.37;100.00;100149.19;5027415;28;20061;-58
2022/12/28 03:50:46;;;;;;;0.10;0.00;;;;;;;8.49;100.00;100149.53;5019619;28;20113;-58
2022/12/28 03:53:12;;;;;;;0.98;0.10;;;;;;;8.48;100.00;100154.03;5034653;28;20029;-56
2022/12/28 03:55:39;;;;;;;0.00;0.00;;;;;;;8.51;100.00;100147.53;5031726;28;20040;-56
2022/12/28 03:58:05;;;;;;;0.32;0.32;;;;;;;8.48;100.00;100145.28;5024199;28;20352;-57
2022/12/28 04:00:30;;;;;;;0.45;0.15;;;;;;;8.49;100.00;100142.47;5027179;28;20029;-59
2022/12/28 04:02:56;;;;;;;0.13;0.00;;;;;;;8.38;100.00;100134.97;5032444;28;20025;-58
2022/12/28 04:05:21;;;;;;;0.40;0.00;;;;;;;8.40;100.00;100143.56;5036504;28;20554;-57
2022/12/28 04:07:47;;;;;;;0.22;0.00;;;;;;;8.46;100.00;100131.44;5030402;28;20021;-56
2022/12/28 04:10:13;;;;;;;0.88;0.00;;;;;;;8.45;100.00;100129.81;5027462;28;20036;-56
2022/12/28 04:12:38;;;;;;;0.30;0.00;;;;;;;8.40;100.00;100116.31;5030389;28;20464;-57
2022/12/28 04:15:05;;;;;;;1.08;0.20;;;;;;;8.36;100.00;100115.84;5030628;28;20049;-55
2022/12/28 04:17:30;;;;;;;0.00;0.00;;;;;;;8.37;100.00;100112.22;5041928;28;20025;-56
2022/12/28 04:19:55;;;;;;;0.00;0.00;;;;;;;8.39;100.00;100106.72;5024350;28;20098;-53
2022/12/28 04:22:21;;;;;;;0.00;0.00;;;;;;;8.44;100.00;100112.28;5023240;28;20042;-57
2022/12/28 04:24:46;;;;;;;1.00;0.00;;;;;;;8.49;100.00;100113.41;5027271;28;20079;-57
2022/12/28 04:27:11;;;;;;;1.67;0.00;;;;;;;8.50;100.00;100112.38;5026211;28;20073;-56
2022/12/28 04:29:37;;;;;;;0.13;0.00;;;;;;;8.51;100.00;100099.97;5028623;28;20482;-54
2022/12/28 04:32:02;;;;;;;0.08;0.00;;;;;;;8.40;100.00;100103.94;5038910;28;20052;-56
2022/12/28 04:34:27;;;;;;;0.10;0.00;;;;;;;8.40;100.00;100090.72;5024822;28;20029;-57
2022/12/28 04:36:53;;;;;;;0.95;0.08;;;;;;;8.42;100.00;100091.38;5032869;28;20029;-55
2022/12/28 04:39:18;;;;;;;0.10;0.00;;;;;;;8.55;100.00;100087.22;5041672;28;20021;-59
2022/12/28 04:41:43;;;;;;;0.10;0.00;;;;;;;8.49;100.00;100084.34;5029451;28;20026;-59
2022/12/28 04:44:09;;;;;;;0.70;0.10;;;;;;;8.52;100.00;100080.50;5032514;28;20072;-59
2022/12/28 04:46:34;;;;;;;0.75;0.08;;;;;;;8.46;100.00;100074.13;5028551;28;20062;-58
2022/12/28 04:49:00;;;;;;;1.17;0.00;;;;;;;8.42;100.00;100075.50;5029010;28;20099;-56
2022/12/28 04:51:27;;;;;;;0.05;0.00;;;;;;;8.45;100.00;100069.03;5029859;28;20029;-55
2022/12/28 04:53:54;;;;;;;0.00;0.00;;;;;;;8.46;100.00;100066.19;5024062;28;20034;-58
2022/12/28 04:56:21;;;;;;;0.00;0.00;;;;;;;8.45;100.00;100064.56;5032867;28;20020;-57
2022/12/28 04:58:46;;;;;;;0.80;0.00;;;;;;;8.46;100.00;100063.53;5025602;28;20064;-59
2022/12/28 05:01:14;;;;;;;0.00;0.00;;;;;;;8.48;100.00;100058.91;5033262;28;20061;-60
2022/12/28 05:03:42;;;;;;;0.43;0.28;;;;;;;8.49;100.00;100060.56;5030965;28;20025;-58
2022/12/28 05:06:11;;;;;;;0.10;0.00;;;;;;;8.45;100.00;100059.28;5030715;28;20033;-57
2022/12/28 05:08:37;;;;;;;0.05;0.00;;;;;;;8.49;100.00;100054.44;5033305;28;20463;-56
2022/12/28 05:11:05;;;;;;;0.00;0.00;;;;;;;8.48;100.00;100043.03;5037180;28;20052;-57
2022/12/28 05:13:31;;;;;;;0.00;0.00;;;;;;;8.48;100.00;100043.03;5036365;28;20111;-52
2022/12/28 05:16:05;;;;;;;0.32;0.00;;;;;;;8.51;100.00;100039.22;5025394;28;20068;-58
2022/12/28 05:18:30;;;;;;;0.00;0.00;;;;;;;8.45;100.00;100037.34;5031919;28;20053;-58
2022/12/28 05:21:00;;;;;;;0.00;0.00;;;;;;;8.58;100.00;100037.47;5030724;28;20072;-59
2022/12/28 05:23:28;;;;;;;0.00;0.00;;;;;;;8.50;100.00;100030.47;5029805;28;20040;-59
2022/12/28 05:25:54;;;;;;;0.00;0.00;;;;;;;8.51;100.00;100033.94;5033269;28;20029;-59
2022/12/28 05:28:20;;;;;;;0.00;0.00;;;;;;;8.57;100.00;100032.34;5033494;28;20543;-58
2022/12/28 05:30:45;;;;;;;0.10;0.10;;;;;;;8.58;100.00;100031.34;5023328;28;20112;-59
2022/12/28 05:33:10;;;;;;;0.40;0.10;;;;;;;8.67;100.00;100028.41;5028784;28;20112;-56
2022/12/28 05:35:35;;;;;;;0.35;0.00;;;;;;;8.65;100.00;100021.69;5035495;28;20454;-57
2022/12/28 05:38:02;;;;;;;0.00;0.00;;;;;;;8.63;100.00;100021.84;5031829;28;20060;-59
2022/12/28 05:40:27;;;;;;;0.00;0.00;;;;;;;8.82;100.00;100028.31;5028791;28;20026;-56
2022/12/28 05:42:52;;;;;;;0.00;0.00;;;;;;;9.09;100.00;100032.00;5033820;28;20796;-57
2022/12/28 05:45:18;;;;;;;0.00;0.00;;;;;;;9.21;100.00;100034.91;5033294;28;20530;-54
2022/12/28 05:47:43;;;;;;;0.00;0.00;;;;;;;9.36;100.00;100042.75;5034787;28;20061;-58
2022/12/28 05:50:08;;;;;;;0.00;0.00;;;;;;;9.36;100.00;100037.47;4994087;28;1111670;-57
2022/12/28 05:52:35;;;;;;;0.00;0.00;;;;;;;9.34;100.00;100034.19;5037105;28;20505;-56
2022/12/28 05:55:00;;;;;;;0.00;0.00;;;;;;;9.37;100.00;100039.94;5032482;28;20031;-58
2022/12/28 05:57:26;;;;;;;0.10;0.10;;;;;;;9.47;100.00;100036.91;5035883;28;20036;-59
2022/12/28 05:59:51;;;;;;;0.00;0.00;;;;;;;9.54;100.00;100036.97;5034357;28;20474;-59
2022/12/28 06:02:16;;;;;;;0.00;0.00;;;;;;;9.60;100.00;100038.81;5034188;28;20028;-57
2022/12/28 06:04:42;;;;;;;0.82;0.00;;;;;;;9.63;100.00;100043.75;5033228;28;20033;-60
2022/12/28 06:07:07;;;;;;;0.00;0.00;;;;;;;9.72;100.00;100036.47;5025200;28;20045;-56
2022/12/28 06:09:32;;;;;;;0.00;0.00;;;;;;;9.70;100.00;100025.25;5029520;28;20473;-55
2022/12/28 06:11:58;;;;;;;0.00;0.00;;;;;;;9.67;100.00;100029.09;5035170;28;20021;-54
2022/12/28 06:14:23;;;;;;;0.00;0.00;;;;;;;9.67;100.00;100036.22;5027597;28;20470;-56
2022/12/28 06:16:48;;;;;;;0.05;0.00;;;;;;;9.74;100.00;100029.94;5037041;28;20517;-59
2022/12/28 06:19:14;;;;;;;0.00;0.00;;;;;;;9.71;100.00;100034.84;5029591;28;20135;-59
2022/12/28 06:21:40;;;;;;;0.00;0.00;;;;;;;9.75;100.00;100031.56;5025958;28;20025;-58
2022/12/28 06:24:07;;;;;;;0.30;0.00;;;;;;;9.81;100.00;100024.69;5033212;28;20021;-58
2022/12/28 06:26:34;;;;;;;0.00;0.00;;;;;;;9.76;100.00;100030.56;5027284;28;20110;-59
2022/12/28 06:29:03;;;;;;;0.10;0.00;;;;;;;9.75;100.00;100017.53;5034214;28;20114;-58
2022/12/28 06:31:40;;;;;;;0.00;0.00;;;;;;;9.77;100.00;100013.66;5030213;28;20371;-59
2022/12/28 06:34:07;;;;;;;0.00;0.00;;;;;;;9.77;100.00;100015.50;5030851;28;20029;-59
2022/12/28 06:36:38;;;;;;;0.52;0.10;;;;;;;9.85;100.00;100009.22;5049600;28;20146;-59
2022/12/28 06:39:06;;;;;;;0.00;0.00;;;;;;;9.82;100.00;100005.94;5039643;28;20448;-58
2022/12/28 06:41:31;;;;;;;0.00;0.00;;;;;;;9.80;100.00;100007.97;5032884;28;20770;-59
2022/12/28 06:43:57;;;;;;;0.00;0.00;;;;;;;9.81;100.00;100006.97;5028718;28;20056;-57
2022/12/28 06:46:26;;;;;;;0.00;0.00;;;;;;;9.88;100.00;100011.47;5024513;28;20415;-58
2022/12/28 06:48:51;;;;;;;0.00;0.00;;;;;;;9.85;100.00;99998.63;5021368;28;20101;-59
2022/12/28 06:51:20;;;;;;;0.00;0.00;;;;;;;9.85;100.00;99999.44;5031626;28;20121;-60
2022/12/28 06:53:47;;;;;;;0.00;0.00;;;;;;;9.86;100.00;99985.22;5033046;28;20030;-55
2022/12/28 06:56:15;;;;;;;0.00;0.00;;;;;;;9.88;100.00;99985.00;5026788;28;20033;-58
2022/12/28 06:58:41;;;;;;;0.00;0.00;;;;;;;9.76;100.00;99982.91;5030036;28;20033;-57
2022/12/28 07:01:08;;;;;;;0.00;0.00;;;;;;;9.87;100.00;99986.03;5030886;28;20549;-59
2022/12/28 07:03:33;;;;;;;0.10;0.00;;;;;;;9.82;100.00;99986.59;5026047;28;20041;-59
2022/12/28 07:06:00;;;;;;;0.00;0.00;;;;;;;9.81;100.00;99977.84;5027572;28;20087;-59
2022/12/28 07:08:25;;;;;;;0.20;0.20;;;;;;;9.85;100.00;99983.56;5029560;28;20037;-60
2022/12/28 07:10:51;;;;;;;0.00;0.00;;;;;;;9.79;100.00;99974.59;5027193;28;20072;-58
2022/12/28 07:13:16;;;;;;;0.65;0.10;;;;;;;9.87;100.00;99959.53;5028677;28;20029;-55
2022/12/28 07:15:41;;;;;;;0.00;0.00;;;;;;;9.81;100.00;99961.97;5025758;28;20025;-58
2022/12/28 07:18:06;;;;;;;0.00;0.00;;;;;;;9.83;100.00;99961.75;5021736;28;20037;-59
2022/12/28 07:20:32;;;;;;;0.75;0.00;;;;;;;9.80;100.00;99955.03;5021050;28;20261;-57
2022/12/28 07:22:57;;;;;;;0.08;0.08;;;;;;;9.79;100.00;99953.41;5025794;28;20071;-57
2022/12/28 07:25:23;;;;;;;0.00;0.00;;;;;;;9.80;100.00;99944.44;5023114;28;20033;-57
2022/12/28 07:27:48;;;;;;;0.00;0.00;;;;;;;9.75;100.00;99941.56;5027293;28;20037;-60
2022/12/28 07:30:13;;;;;;;0.00;0.00;;;;;;;9.71;100.00;99939.53;5021990;28;20118;-59
2022/12/28 07:32:39;;;;;;;0.00;0.00;;;;;;;9.73;100.00;99922.44;5035496;28;20371;-58
2022/12/28 07:35:05;;;;;;;0.00;0.00;;;;;;;9.79;100.00;99921.63;5024663;28;20033;-60
2022/12/28 07:37:30;;;;;;;0.00;0.00;;;;;;;9.81;100.00;99921.44;5027689;28;20028;-58
2022/12/28 07:39:56;;;;;;;0.20;0.00;;;;;;;9.68;100.00;99914.28;5019652;28;20029;-57
2022/12/28 07:42:21;;;;;;;3.35;0.47;;;;;;;9.73;100.00;99911.00;5023083;28;20033;-58
2022/12/28 07:44:47;;;;;;;0.98;0.00;;;;;;;9.69;100.00;99907.13;5027318;28;20040;-57
2022/12/28 07:47:13;;;;;;;0.65;0.00;;;;;;;9.67;100.00;99914.47;5021904;28;20188;-58
2022/12/28 07:49:39;;;;;;;0.65;0.00;;;;;;;9.67;100.00;99904.69;5018372;28;20570;-59
2022/12/28 07:52:04;;;;;;;0.00;0.00;;;;;;;9.60;100.00;99906.47;5018265;28;20026;-60
2022/12/28 07:54:29;;;;;;;0.22;0.22;;;;;;;9.53;100.00;99909.13;5025253;28;20536;-58
2022/12/28 07:56:55;;;;;;;0.00;0.00;;;;;;;9.66;100.00;99892.47;5026144;28;20045;-55
2022/12/28 07:59:20;;;;;;;0.05;0.00;;;;;;;9.67;100.00;99888.78;5020168;28;20030;-60
2022/12/28 08:01:48;;;;;;;0.30;0.00;;;;;;;9.63;100.00;99886.75;5019607;28;20038;-63
2022/12/28 08:04:14;;;;;;;0.22;0.22;;;;;;;9.61;100.00;99893.06;5021402;28;20068;-58
2022/12/28 08:06:41;;;;;;;0.00;0.00;;;;;;;9.58;100.00;99887.38;5021551;28;20415;-58
2022/12/28 08:09:09;;;;;;;0.22;0.00;;;;;;;9.57;100.00;99875.13;5024443;28;20064;-60
2022/12/28 08:11:37;;;;;;;0.20;0.00;;;;;;;9.66;100.00;99878.44;5029908;28;20056;-59
2022/12/28 08:14:03;;;;;;;2.65;0.00;;;;;;;9.60;100.00;99874.72;5032785;28;20033;-62
2022/12/28 08:16:31;;;;;;;1.30;0.20;;;;;;;9.56;100.00;99866.38;5026181;28;20026;-57
2022/12/28 08:18:57;;;;;;;1.05;0.35;;;;;;;9.47;100.00;99864.91;5024689;28;20032;-59
2022/12/28 08:21:29;;;;;;;0.35;0.15;;;;;;;9.49;100.00;99859.44;5027744;28;20037;-61
2022/12/28 08:23:55;;;;;;;0.20;0.10;;;;;;;9.43;100.00;99855.75;5030065;28;20065;-60
2022/12/28 08:26:28;;;;;;;1.42;0.00;;;;;;;9.47;100.00;99854.31;5028559;28;20460;-60
2022/12/28 08:28:56;;;;;;;1.00;0.40;;;;;;;9.40;100.00;99837.63;5026079;28;20029;-61
2022/12/28 08:31:28;;;;;;;3.58;0.40;;;;;;;9.39;100.00;99841.28;5014870;28;20024;-60
2022/12/28 08:33:54;;;;;;;;;;;;;;;9.38;100.00;99840.47;5018720;28;20181;-60
2022/12/28 08:36:20;;;;;;;1.95;1.08;;;;;;;9.29;100.00;99824.97;5022101;28;20449;-58
2022/12/28 08:38:45;;;;;;;3.50;0.40;;;;;;;9.35;100.00;99819.69;5020881;28;20100;-59
2022/12/28 08:41:16;;;;;;;5.10;1.17;;;;;;;9.35;100.00;99817.06;5024321;28;20796;-60
2022/12/28 08:43:42;;;;;;;3.80;0.22;;;;;;;9.37;100.00;99815.03;5023344;28;21129;-60
2022/12/28 08:46:11;;;;;;;1.55;0.38;;;;;;;9.32;100.00;99804.22;5029852;28;20029;-60
2022/12/28 08:48:37;;;;;;;2.78;0.47;;;;;;;9.29;100.00;99802.00;5021643;28;20061;-61
2022/12/28 08:51:07;;;;;;;2.63;1.00;;;;;;;9.31;100.00;99797.28;5019412;28;20079;-59
2022/12/28 08:53:33;;;;;;;7.65;0.73;;;;;;;9.27;100.00;99797.91;5032357;28;20021;-59
2022/12/28 08:56:10;;;;;;;2.53;0.70;;;;;;;9.27;100.00;99789.97;5029639;28;20029;-59
2022/12/28 08:58:37;;;;;;;4.30;0.35;;;;;;;9.26;100.00;99794.44;5031592;28;20021;-56
2022/12/28 09:01:08;;;;;;;6.93;1.45;;;;;;;9.26;100.00;99783.84;5025264;28;20044;-56
2022/12/28 09:03:35;;;;;;;0.70;0.10;;;;;;;9.24;100.00;99783.25;5026779;28;20167;-56
2022/12/28 09:06:05;;;;;;;5.20;0.10;;;;;;;9.22;100.00;99777.34;5029168;28;20040;-56
2022/12/28 09:08:31;;;;;;;2.90;1.02;;;;;;;9.20;100.00;99778.56;5032788;28;20059;-56
2022/12/28 09:11:01;;;;;;;4.50;0.95;;;;;;;9.20;100.00;99781.19;5033293;28;20025;-54
2022/12/28 09:13:27;;;;;;;3.20;0.05;;;;;;;9.20;100.00;99768.78;5032708;28;20551;-58
2022/12/28 09:15:57;;;;;;;6.78;1.35;;;;;;;9.17;100.00;99777.13;5033939;28;20025;-59
2022/12/28 09:18:23;;;;;;;5.20;0.30;;;;;;;9.12;100.00;99763.69;5027907;28;20040;-60
2022/12/28 09:20:48;;;;;;;3.83;0.85;;;;;;;9.13;100.00;99758.16;5028415;28;20270;-52
2022/12/28 09:23:13;;;;;;;4.03;1.30;;;;;;;9.14;100.00;99753.72;5028824;28;21319;-58
2022/12/28 09:25:39;;;;;;;3.75;0.90;;;;;;;9.23;100.00;99746.41;5026225;28;20430;-57
2022/12/28 09:28:04;;;;;;;6.07;0.63;;;;;;;9.24;100.00;99730.34;5021629;28;20029;-60
2022/12/28 09:30:30;;;;;;;2.08;0.90;;;;;;;9.18;100.00;99733.78;5018403;28;20494;-60
2022/12/28 09:33:57;;;;;;;4.00;1.00;;;;;;;9.06;100.00;99725.63;5026655;28;20510;-56
2022/12/28 09:35:40;;;;;;;10.18;1.75;;;;;;;9.04;100.00;99721.56;5029611;28;20029;-60
2022/12/28 09:38:05;;;;;;;0.25;0.15;;;;;;;9.08;100.00;99717.47;5038450;28;20028;-60
2022/12/28 09:40:33;;;;;;;2.40;0.10;;;;;;;9.10;100.00;99704.88;5030303;28;20032;-61
2022/12/28 09:42:59;;;;;;;4.28;1.20;;;;;;;9.08;100.00;99702.41;5030653;28;20470;-60
2022/12/28 09:45:25;;;;;;;0.13;0.00;;;;;;;9.02;100.00;99702.41;5031644;28;20091;-60
2022/12/28 09:47:55;;;;;;;4.25;0.57;;;;;;;8.99;100.00;99698.34;5025136;28;20040;-59
2022/12/28 09:50:28;;;;;;;2.80;0.20;;;;;;;8.99;100.00;99687.75;5027621;28;20586;-60
2022/12/28 09:53:25;;;;;;;1.67;0.10;;;;;;;9.06;100.00;99693.06;5021671;28;20037;-61
2022/12/28 09:56:00;;;;;;;4.95;0.75;;;;;;;9.00;100.00;99683.28;5022829;28;20092;-59
2022/12/28 09:58:26;;;;;;;3.40;0.45;;;;;;;9.04;100.00;99680.06;5021916;28;20383;-61
2022/12/28 10:00:55;;;;;;;2.08;0.15;;;;;;;9.08;100.00;99680.44;5017322;28;20467;-60
2022/12/28 10:03:47;;;;;;;5.78;1.00;;;;;;;9.05;100.00;99671.09;5021379;28;20078;-57
2022/12/28 10:06:21;;;;;;;2.60;0.00;;;;;;;9.01;100.00;99671.69;5022893;28;20452;-60
2022/12/28 10:08:52;;;;;;;1.00;0.88;;;;;;;9.00;100.00;99670.88;5028471;28;20041;-59
2022/12/28 10:11:22;;;;;;;0.75;0.32;;;;;;;9.00;100.00;99659.50;5034621;28;20056;-60
2022/12/28 10:13:54;;;;;;;3.25;0.45;;;;;;;9.07;100.00;99660.31;5024389;28;20423;-60
2022/12/28 10:16:21;;;;;;;2.55;0.00;;;;;;;9.07;100.00;99655.84;5028147;28;20017;-55
2022/12/28 10:18:47;;;;;;;9.55;2.08;;;;;;;9.06;100.00;99650.75;5020966;28;20026;-59
2022/12/28 10:21:17;;;;;;;2.80;0.95;;;;;;;9.04;100.00;99650.97;5044889;28;20033;-56
2022/12/28 10:23:44;;;;;;;7.30;1.00;;;;;;;8.95;100.00;99650.31;5035361;28;20049;-58
2022/12/28 10:26:16;;;;;;;3.63;0.30;;;;;;;8.93;100.00;99644.44;5040782;28;20466;-58
2022/12/28 10:28:58;;;;;;;2.63;0.15;;;;;;;9.00;100.00;99631.22;5029248;28;20038;-59
2022/12/28 10:31:29;;;;;;;3.53;0.30;;;;;;;9.05;100.00;99630.63;5033190;28;20044;-56
2022/12/28 10:33:55;;;;;;;0.98;0.10;;;;;;;9.06;100.00;99613.72;5028297;28;20445;-59
2022/12/28 10:36:20;;;;;;;2.58;0.68;;;;;;;9.10;100.00;99607.03;5027214;28;20109;-60
2022/12/28 10:38:55;;;;;;;1.85;0.30;;;;;;;9.14;100.00;99587.91;5033399;28;20052;-60
2022/12/28 10:41:21;;;;;;;3.80;0.38;;;;;;;9.07;100.00;99584.44;5036129;28;20013;-56
2022/12/28 10:43:51;;;;;;;3.22;0.10;;;;;;;9.04;100.00;99573.47;5029825;28;20079;-57
2022/12/28 10:46:24;;;;;;;2.47;0.05;;;;;;;9.04;100.00;99561.06;5021959;28;20037;-58
2022/12/28 10:48:55;;;;;;;2.03;0.10;;;;;;;9.06;100.00;99558.19;5023768;28;20053;-59
2022/12/28 10:51:23;;;;;;;7.53;0.47;;;;;;;9.02;100.00;99554.34;5027815;28;20020;-58
2022/12/28 10:53:53;;;;;;;1.95;0.00;;;;;;;9.08;100.00;99542.94;5012406;28;20142;-59
2022/12/28 10:56:26;;;;;;;1.73;0.15;;;;;;;9.07;100.00;99534.19;5021976;28;20025;-59
2022/12/28 10:59:13;;;;;;;4.78;0.85;;;;;;;9.07;100.00;99525.47;5020854;28;20099;-59
2022/12/28 11:01:40;;;;;;;0.82;0.10;;;;;;;9.05;100.00;99524.84;5019589;28;20040;-61
2022/12/28 11:04:20;;;;;;;0.75;0.15;;;;;;;9.04;100.00;99510.81;5020513;28;20049;-61
2022/12/28 11:06:55;;;;;;;1.63;0.20;;;;;;;9.02;100.00;99507.56;5021329;28;20475;-57
2022/12/28 11:09:24;;;;;;;0.55;0.28;;;;;;;8.95;100.00;99499.63;5021495;28;20026;-59
2022/12/28 11:11:51;;;;;;;1.75;0.52;;;;;;;9.04;100.00;99504.72;5021558;28;20105;-57
2022/12/28 11:14:25;;;;;;;0.30;0.13;;;;;;;9.02;100.00;99489.03;5025496;28;20026;-62
2022/12/28 11:16:52;;;;;;;1.17;0.05;;;;;;;9.01;100.00;99478.66;5023982;28;20030;-61
2022/12/28 11:19:19;;;;;;;1.30;0.30;;;;;;;8.91;100.00;99485.19;5023785;28;20034;-60
2022/12/28 11:21:44;;;;;;;0.10;0.10;;;;;;;8.92;100.00;99476.25;5024369;28;20033;-61
2022/12/28 11:24:15;;;;;;;2.33;0.20;;;;;;;9.02;100.00;99469.72;5026411;28;20092;-60
2022/12/28 11:26:47;;;;;;;2.73;0.30;;;;;;;9.00;100.00;99456.72;5022209;28;20033;-61
2022/12/28 11:29:15;;;;;;;0.55;0.00;;;;;;;8.99;100.00;99456.94;5029647;28;20041;-60
2022/12/28 11:31:48;;;;;;;0.82;0.45;;;;;;;9.00;100.00;99454.06;5023645;28;20059;-57
2022/12/28 11:34:19;;;;;;;0.10;0.10;;;;;;;9.05;100.00;99432.31;5021849;28;20120;-58
2022/12/28 11:36:46;;;;;;;1.98;0.13;;;;;;;9.07;100.00;99428.44;5026196;28;20083;-60
2022/12/28 11:39:23;;;;;;;3.40;0.55;;;;;;;9.07;100.00;99411.75;5023609;28;20025;-60
2022/12/28 11:41:49;;;;;;;2.75;0.30;;;;;;;8.94;100.00;99413.41;5023197;28;20540;-58
2022/12/28 11:44:44;;;;;;;1.38;0.68;;;;;;;9.02;100.00;99417.66;5025457;28;20033;-60
2022/12/28 11:47:15;;;;;;;0.90;0.22;;;;;;;9.12;100.00;99411.94;5012150;28;20124;-59
2022/12/28 11:49:42;;;;;;;0.93;0.30;;;;;;;9.05;100.00;99390.00;5019198;28;20057;-58
2022/12/28 11:52:14;;;;;;;1.15;0.08;;;;;;;9.00;100.00;99372.09;5034119;28;20029;-60
2022/12/28 11:54:54;;;;;;;1.27;0.20;;;;;;;9.01;100.00;99362.34;5020688;28;20023;-58
2022/12/28 11:57:32;;;;;;;0.47;0.10;;;;;;;9.03;100.00;99358.47;5019590;28;20038;-56
2022/12/28 12:00:17;;;;;;;0.95;0.00;;;;;;;9.06;100.00;99341.38;5016926;28;20537;-58
2022/12/28 12:02:59;;;;;;;1.67;0.10;;;;;;;9.04;100.00;99338.94;5025489;28;20033;-57